Time;durP1;ratioP1;P1;durP2;ratioP2;P2;SDS_P1;SDS_P2;PMS_P1;PMS_P2;Temp;Humidity;BMP_temperature;BMP_pressure;BME280_temperature;BME280_humidity;BME280_pressure;Samples;Min_cycle;Max_cycle;Signal;HPM_P1;HPM_P2
2022/05/16 00:02:02;;;;;;;14.17;3.00;;;;;;;-145.18;100.00;47160.47;5092882;28;20408;-76
2022/05/16 00:04:27;;;;;;;9.93;2.67;;;;;;;-145.18;100.00;47164.38;5092557;28;20044;-76
2022/05/16 00:06:52;;;;;;;10.67;2.77;;;;;;;-145.18;100.00;47164.38;5092808;28;20473;-76
2022/05/16 00:09:18;;;;;;;8.43;3.20;;;;;;;-145.18;100.00;47174.16;5093008;28;20063;-76
2022/05/16 00:11:44;;;;;;;13.43;3.60;;;;;;;-145.18;100.00;47185.88;5092678;28;20400;-76
2022/05/16 00:14:10;;;;;;;9.83;3.40;;;;;;;-145.18;100.00;47180.03;5092912;28;20106;-76
2022/05/16 00:16:36;;;;;;;11.93;2.77;;;;;;;-145.18;100.00;47170.25;5092048;28;20077;-76
2022/05/16 00:19:01;;;;;;;9.20;2.63;;;;;;;-145.18;100.00;47168.28;5074533;28;20036;-76
2022/05/16 00:21:26;;;;;;;14.63;3.90;;;;;;;-145.18;100.00;47183.94;5092180;28;20154;-76
2022/05/16 00:23:52;;;;;;;9.70;3.47;;;;;;;-145.18;100.00;47176.09;5092931;28;20031;-75
2022/05/16 00:26:18;;;;;;;9.73;2.67;;;;;;;-145.18;100.00;47164.38;5092181;28;20107;-75
2022/05/16 00:28:43;;;;;;;12.60;2.90;;;;;;;-145.18;100.00;47156.56;5079445;28;20106;-75
2022/05/16 00:31:09;;;;;;;11.07;3.50;;;;;;;-145.18;100.00;47168.28;5072184;28;20384;-75
2022/05/16 00:33:34;;;;;;;10.83;2.90;;;;;;;-145.18;100.00;47181.97;5072248;28;20040;-75
2022/05/16 00:35:59;;;;;;;8.70;3.10;;;;;;;-145.18;100.00;47178.06;5072315;28;20042;-75
2022/05/16 00:38:25;;;;;;;10.93;3.10;;;;;;;-145.18;100.00;47174.16;5071964;28;20132;-75
2022/05/16 00:40:51;;;;;;;15.57;3.47;;;;;;;-145.18;100.00;47183.94;5072456;28;20032;-75
2022/05/16 00:43:24;;;;;;;10.43;3.43;;;;;;;-145.18;100.00;47170.25;5071870;28;20025;-75
2022/05/16 00:45:50;;;;;;;9.43;3.00;;;;;;;-145.18;100.00;47183.94;5072179;28;20047;-75
2022/05/16 00:48:16;;;;;;;11.50;3.77;;;;;;;-145.18;100.00;47180.03;5071598;28;20065;-76
2022/05/16 00:50:42;;;;;;;11.07;3.10;;;;;;;-145.18;100.00;47174.16;5072182;28;20024;-75
2022/05/16 00:53:09;;;;;;;13.90;3.60;;;;;;;-145.18;100.00;47168.28;5071732;28;20043;-75
2022/05/16 00:55:37;;;;;;;10.13;3.23;;;;;;;-145.18;100.00;47166.34;5071921;28;20016;-75
2022/05/16 00:58:12;;;;;;;15.23;3.40;;;;;;;-145.18;100.00;47183.94;5071449;28;20123;-75
2022/05/16 01:00:40;;;;;;;10.10;3.42;;;;;;;-145.18;100.00;47168.28;5071580;28;20040;-74
2022/05/16 01:05:57;;;;;;;12.83;3.07;;;;;;;-145.18;100.00;47183.94;5072135;28;20565;-75
2022/05/16 01:08:25;;;;;;;13.63;3.53;;;;;;;-145.18;100.00;47185.88;5071168;28;20058;-74
2022/05/16 01:10:57;;;;;;;13.73;3.90;;;;;;;-145.18;100.00;47178.06;5071043;28;20035;-74
2022/05/16 01:13:28;;;;;;;8.43;3.33;;;;;;;-145.18;100.00;47176.09;5053069;28;20055;-74
2022/05/16 01:15:54;;;;;;;11.80;3.87;;;;;;;-145.18;100.00;47183.94;5071566;28;20021;-74
2022/05/16 01:18:21;;;;;;;11.50;3.93;;;;;;;-145.18;100.00;47181.97;5071126;28;20043;-74
2022/05/16 01:21:03;;;;;;;14.07;3.67;;;;;;;-145.18;100.00;47180.03;5071834;28;20105;-74
2022/05/16 01:23:41;;;;;;;13.63;3.67;;;;;;;-145.18;100.00;47183.94;5071033;28;20469;-74
2022/05/16 01:26:11;;;;;;;9.87;3.77;;;;;;;-145.18;100.00;47176.09;5071397;28;20073;-75
2022/05/16 01:28:36;;;;;;;10.73;3.80;;;;;;;-145.18;100.00;47181.97;5071101;28;20039;-75
2022/05/16 01:31:02;;;;;;;14.83;3.73;;;;;;;-145.18;100.00;47187.84;5071344;28;20037;-74
2022/05/16 01:33:27;;;;;;;13.70;3.40;;;;;;;-145.18;100.00;47191.75;5070880;28;20032;-75
2022/05/16 01:35:54;;;;;;;13.37;3.83;;;;;;;-145.18;100.00;47164.38;5071201;28;20033;-74
2022/05/16 01:38:25;;;;;;;9.83;3.43;;;;;;;-145.18;100.00;47178.06;5070600;28;20060;-74
2022/05/16 01:40:56;;;;;;;11.07;4.00;;;;;;;-145.18;100.00;47189.78;5071397;28;20033;-75
2022/05/16 01:43:25;;;;;;;12.40;4.03;;;;;;;-145.18;100.00;47172.19;5070424;28;20025;-77
2022/05/16 01:45:51;;;;;;;12.47;3.73;;;;;;;-145.18;100.00;47176.09;5085549;28;20055;-74
2022/05/16 01:48:18;;;;;;;15.00;3.90;;;;;;;-145.18;100.00;47199.56;5090615;28;20432;-76
2022/05/16 01:50:45;;;;;;;10.00;3.50;;;;;;;-145.18;100.00;47189.78;5091264;28;20031;-74
2022/05/16 01:53:12;;;;;;;12.67;3.87;;;;;;;-145.18;100.00;47195.66;5090679;28;20038;-74
2022/05/16 01:55:38;;;;;;;10.17;3.50;;;;;;;-145.18;100.00;47195.66;5091102;28;20416;-77
2022/05/16 01:58:04;;;;;;;15.20;3.60;;;;;;;-145.18;100.00;47183.94;5090770;28;20020;-77
2022/05/16 02:03:05;;;;;;;11.63;3.80;;;;;;;-145.18;100.00;47195.66;5061976;23;20065;-75
2022/05/16 02:05:31;;;;;;;15.70;4.70;;;;;;;-145.18;100.00;47187.84;4982215;28;20038;-75
2022/05/16 02:07:57;;;;;;;13.23;4.07;;;;;;;-145.18;100.00;47203.47;4990852;28;20800;-75
2022/05/16 02:10:25;;;;;;;11.50;3.87;;;;;;;-145.18;100.00;47197.59;4991664;28;20053;-75
2022/05/16 02:12:52;;;;;;;13.20;3.83;;;;;;;-145.18;100.00;47199.56;4990763;28;20034;-75
2022/05/16 02:15:20;;;;;;;10.43;4.00;;;;;;;-145.18;100.00;47191.75;4990934;28;20034;-75
2022/05/16 02:17:45;;;;;;;11.93;3.83;;;;;;;-145.18;100.00;47203.47;4990709;28;20088;-75
2022/05/16 02:20:12;;;;;;;12.17;4.20;;;;;;;-145.18;100.00;47191.75;4991089;28;20049;-75
2022/05/16 02:25:22;;;;;;;12.97;3.97;;;;;;;-145.18;100.00;47213.22;4991568;28;20097;-75
2022/05/16 02:27:49;;;;;;;13.97;4.20;;;;;;;-145.18;100.00;47199.56;4990394;28;20036;-75
2022/05/16 02:30:14;;;;;;;13.30;4.17;;;;;;;-145.18;100.00;47199.56;4976641;28;20073;-75
2022/05/16 02:32:40;;;;;;;12.30;3.70;;;;;;;-145.18;100.00;47207.38;4990869;28;20109;-75
2022/05/16 02:35:06;;;;;;;13.70;4.37;;;;;;;-145.18;100.00;47219.09;4991289;28;20395;-76
2022/05/16 02:37:31;;;;;;;9.93;4.10;;;;;;;-145.18;100.00;47217.13;4990267;28;20086;-75
2022/05/16 02:39:57;;;;;;;9.27;4.13;;;;;;;-145.18;100.00;47226.91;4991013;28;20042;-76
2022/05/16 02:42:23;;;;;;;12.10;4.67;;;;;;;-145.18;100.00;47234.72;4990877;28;20043;-75
2022/05/16 02:44:52;;;;;;;13.67;4.33;;;;;;;-145.18;100.00;47219.09;4990713;28;20506;-75
2022/05/16 02:47:20;;;;;;;14.90;4.60;;;;;;;-145.18;100.00;47254.25;4990581;28;20030;-75
2022/05/16 02:49:45;;;;;;;11.67;4.60;;;;;;;-145.18;100.00;47265.97;4990818;28;20034;-75
2022/05/16 02:52:11;;;;;;;9.57;4.13;;;;;;;-145.18;100.00;47267.94;4972865;28;20396;-75
2022/05/16 02:54:37;;;;;;;18.13;5.50;;;;;;;-145.18;100.00;47250.34;4990928;28;20502;-75
2022/05/16 02:57:05;;;;;;;11.37;4.77;;;;;;;-145.18;100.00;47254.25;4990680;28;20031;-78
2022/05/16 02:59:32;;;;;;;13.67;4.60;;;;;;;-145.18;100.00;47297.22;4989409;28;20475;-75
2022/05/16 03:02:03;;;;;;;13.37;5.03;;;;;;;-145.18;100.00;47314.81;4990012;28;20058;-76
2022/05/16 03:04:29;;;;;;;12.93;5.13;;;;;;;-145.18;100.00;47301.16;4990621;28;20034;-75
2022/05/16 03:06:55;;;;;;;15.17;5.40;;;;;;;-145.18;100.00;47322.63;4990393;28;20060;-75
2022/05/16 03:09:21;;;;;;;16.07;5.80;;;;;;;-145.18;100.00;47299.19;4990382;28;20445;-75
2022/05/16 03:11:47;;;;;;;11.53;4.93;;;;;;;-145.18;100.00;47293.31;4990557;28;20035;-75
2022/05/16 03:14:12;;;;;;;13.17;5.00;;;;;;;-145.18;100.00;47291.38;4990197;28;20042;-75
2022/05/16 03:16:38;;;;;;;11.27;5.27;;;;;;;-145.18;100.00;47228.84;4990398;28;20069;-75
2022/05/16 03:19:04;;;;;;;11.37;4.87;;;;;;;-145.18;100.00;47211.28;4990289;28;20121;-75
2022/05/16 03:21:30;;;;;;;18.20;5.47;;;;;;;-145.18;100.00;47195.66;4990706;28;20118;-75
2022/05/16 03:23:56;;;;;;;13.57;5.60;;;;;;;-145.18;100.00;47180.03;4989676;28;20537;-74
2022/05/16 03:26:22;;;;;;;16.00;5.87;;;;;;;-145.18;100.00;47127.28;4990535;28;20410;-75
2022/05/16 03:28:47;;;;;;;14.90;5.73;;;;;;;-145.18;100.00;47053.03;4990069;28;20045;-75
2022/05/16 03:31:13;;;;;;;14.70;5.77;;;;;;;-145.18;100.00;47000.28;4990384;28;20117;-75
2022/05/16 03:33:38;;;;;;;9.10;4.80;;;;;;;-145.18;100.00;47070.63;4992559;28;20427;-75
2022/05/16 03:36:04;;;;;;;13.97;5.97;;;;;;;-145.18;100.00;47068.66;4994267;28;20038;-75
2022/05/16 03:41:13;;;;;;;17.27;5.70;;;;;;;-145.18;100.00;47090.16;4994812;28;20096;-76
2022/05/16 03:43:40;;;;;;;16.60;5.60;;;;;;;-145.18;100.00;47072.56;4993912;28;20038;-76
2022/05/16 03:46:07;;;;;;;13.13;5.00;;;;;;;-145.18;100.00;47203.47;4994491;28;20109;-75
2022/05/16 03:48:34;;;;;;;17.27;5.13;;;;;;;-145.18;100.00;47097.97;4993809;28;20145;-75
2022/05/16 03:51:01;;;;;;;17.17;5.47;;;;;;;-145.18;100.00;47066.72;4993823;28;20395;-75
2022/05/16 03:53:27;;;;;;;14.73;5.50;;;;;;;-145.18;100.00;47008.09;4993793;28;20031;-75
2022/05/16 03:55:52;;;;;;;13.37;5.53;;;;;;;-145.18;100.00;46910.44;4993860;28;20086;-76
2022/05/16 03:58:17;;;;;;;15.80;5.60;;;;;;;-145.18;100.00;46818.63;4993696;28;20034;-75
2022/05/16 04:00:44;;;;;;;13.53;5.07;;;;;;;-145.18;100.00;46765.88;4994007;28;20039;-75
2022/05/16 04:03:09;;;;;;;12.93;5.30;;;;;;;-145.18;100.00;46740.47;4992925;28;20054;-75
2022/05/16 04:05:35;;;;;;;13.90;5.13;;;;;;;-145.18;100.00;46758.06;4992841;28;20053;-75
2022/05/16 04:08:01;;;;;;;12.10;6.17;;;;;;;-145.18;100.00;46779.56;4993466;28;20109;-76
2022/05/16 04:10:27;;;;;;;11.53;5.37;;;;;;;-145.18;100.00;46775.66;4993815;28;20773;-76
2022/05/16 04:12:52;;;;;;;14.17;5.40;;;;;;;-145.18;100.00;46738.53;4993387;28;20034;-77
2022/05/16 04:15:21;;;;;;;10.57;5.00;;;;;;;-145.18;100.00;46822.53;4993591;28;20114;-76
2022/05/16 04:17:46;;;;;;;9.90;5.57;;;;;;;-145.18;100.00;46988.56;4993104;28;20564;-75
2022/05/16 04:20:13;;;;;;;12.07;5.33;;;;;;;-145.18;100.00;46836.19;4993535;28;20042;-75
2022/05/16 04:22:42;;;;;;;11.87;5.30;;;;;;;-145.18;100.00;46820.56;4992828;28;20030;-76
2022/05/16 04:25:09;;;;;;;18.23;6.13;;;;;;;-145.18;100.00;46777.59;4993257;28;20058;-74
2022/05/16 04:27:35;;;;;;;11.83;5.37;;;;;;;-145.18;100.00;46808.84;4993068;28;20041;-74
2022/05/16 04:30:00;;;;;;;11.33;5.37;;;;;;;-145.18;100.00;46738.53;4995803;28;20447;-74
2022/05/16 04:32:25;;;;;;;16.23;6.33;;;;;;;-145.18;100.00;46674.06;5012749;28;20042;-75
2022/05/16 04:34:51;;;;;;;13.17;6.23;;;;;;;-145.18;100.00;46652.59;5013043;28;20616;-75
2022/05/16 04:37:16;;;;;;;13.13;5.37;;;;;;;-145.18;100.00;46787.38;5012547;28;20434;-74
2022/05/16 04:40:09;;;;;;;13.17;5.27;;;;;;;-145.18;100.00;46887.00;5012664;28;20026;-75
2022/05/16 04:42:40;;;;;;;13.67;5.47;;;;;;;-145.18;100.00;47148.75;5012234;28;20033;-75
2022/05/16 04:45:15;;;;;;;13.17;5.13;;;;;;;-145.18;100.00;47242.53;5012773;28;20033;-75
2022/05/16 04:47:41;;;;;;;12.40;5.37;;;;;;;-145.18;100.00;47219.09;5012214;28;20132;-76
2022/05/16 04:50:07;;;;;;;13.80;5.47;;;;;;;-145.18;100.00;47224.94;5012617;28;20070;-75
2022/05/16 04:52:33;;;;;;;14.23;5.37;;;;;;;-145.18;100.00;47248.41;5012104;28;20501;-75
2022/05/16 04:54:59;;;;;;;13.63;5.37;;;;;;;-145.18;100.00;47236.66;5012241;28;20042;-75
2022/05/16 04:57:25;;;;;;;13.00;5.70;;;;;;;-145.18;100.00;47226.91;4994426;28;20150;-74
2022/05/16 04:59:51;;;;;;;14.93;6.00;;;;;;;-145.18;100.00;47240.56;5012348;28;20505;-75
2022/05/16 05:02:17;;;;;;;16.73;6.97;;;;;;;-145.18;100.00;47230.81;5011789;28;20026;-75
2022/05/16 05:04:43;;;;;;;14.33;6.20;;;;;;;-145.18;100.00;47213.22;5011991;28;20057;-75
2022/05/16 05:07:09;;;;;;;16.83;7.77;;;;;;;-145.18;100.00;47176.09;5012317;28;20473;-75
2022/05/16 05:14:31;;;;;;;19.13;7.33;;;;;;;-145.18;100.00;47181.97;5012052;28;20057;-75
2022/05/16 05:15:08;;;;;;;17.60;6.37;;;;;;;-145.18;100.00;47144.84;5012461;28;20131;-74
2022/05/16 05:17:33;;;;;;;14.97;6.23;;;;;;;-145.18;100.00;47142.91;5011424;28;20037;-75
2022/05/16 05:19:58;;;;;;;17.23;4.90;;;;;;;-145.18;100.00;47142.91;5012003;28;20034;-74
2022/05/16 05:22:24;;;;;;;17.13;5.03;;;;;;;-145.18;100.00;47164.38;5012095;28;20061;-74
2022/05/16 05:24:49;;;;;;;10.37;4.47;;;;;;;-145.18;100.00;47158.53;5011807;28;20062;-75
2022/05/16 05:27:14;;;;;;;10.20;4.77;;;;;;;-145.18;100.00;47168.28;5011438;28;20127;-75
2022/05/16 05:29:40;;;;;;;17.03;5.17;;;;;;;-145.18;100.00;47176.09;5011625;28;20441;-74
2022/05/16 05:32:06;;;;;;;15.73;4.97;;;;;;;-145.18;100.00;47174.16;5011963;28;20065;-75
2022/05/16 05:34:34;;;;;;;12.03;4.63;;;;;;;-145.18;100.00;47195.66;5011191;28;20061;-75
2022/05/16 05:37:00;;;;;;;10.77;5.00;;;;;;;-145.18;100.00;47178.06;5011663;28;20041;-74
2022/05/16 05:39:26;;;;;;;11.20;4.87;;;;;;;-145.18;100.00;47195.66;5008295;28;20360;-74
2022/05/16 05:41:51;;;;;;;13.90;4.50;;;;;;;-145.18;100.00;47180.03;4991012;28;20459;-74
2022/05/16 05:44:17;;;;;;;9.33;5.40;;;;;;;-145.18;100.00;47207.38;5009703;28;20046;-74
2022/05/16 05:46:42;;;;;;;11.77;5.37;;;;;;;-145.18;100.00;47236.66;5010966;28;20041;-74
2022/05/16 05:49:09;;;;;;;9.60;4.77;;;;;;;-145.18;100.00;47234.72;4993694;28;20069;-75
2022/05/16 05:51:35;;;;;;;9.27;5.27;;;;;;;-145.18;100.00;47230.81;5011543;28;20036;-76
2022/05/16 05:54:00;;;;;;;13.67;5.17;;;;;;;-145.18;100.00;47219.09;5010991;28;20034;-76
2022/05/16 05:56:27;;;;;;;12.60;5.83;;;;;;;-145.18;100.00;47236.66;5011153;28;20033;-76
2022/05/16 05:58:53;;;;;;;13.13;5.10;;;;;;;-145.18;100.00;47242.53;5010439;28;20409;-76
2022/05/16 06:01:18;;;;;;;13.93;5.37;;;;;;;-145.18;100.00;47228.84;5011592;28;20049;-76
2022/05/16 06:03:44;;;;;;;11.10;5.13;;;;;;;-145.18;100.00;47160.47;5010651;28;20494;-76
2022/05/16 06:06:09;;;;;;;12.33;4.80;;;;;;;-145.18;100.00;47152.66;4997205;28;20050;-77
2022/05/16 06:08:34;;;;;;;10.27;5.40;;;;;;;-145.18;100.00;47176.09;5000608;28;20042;-77
2022/05/16 06:11:00;;;;;;;14.60;5.90;;;;;;;-145.18;100.00;47168.28;5000618;28;20034;-75
2022/05/16 06:13:26;;;;;;;13.10;5.90;;;;;;;-145.18;100.00;47197.59;5011022;28;20033;-75
2022/05/16 06:15:51;;;;;;;16.40;5.70;;;;;;;-145.18;100.00;47174.16;5010898;28;20662;-75
2022/05/16 06:18:17;;;;;;;16.33;5.97;;;;;;;-145.18;100.00;47129.22;5010562;28;20042;-76
2022/05/16 06:20:42;;;;;;;31.33;6.50;;;;;;;-145.18;100.00;46998.34;5010830;28;20030;-76
2022/05/16 06:23:08;;;;;;;14.07;6.07;;;;;;;-145.18;100.00;47203.47;5010630;28;20466;-77
2022/05/16 06:25:34;;;;;;;14.43;6.17;;;;;;;-145.18;100.00;47211.28;5011105;28;20045;-76
2022/05/16 06:28:37;;;;;;;12.90;5.83;;;;;;;-145.18;100.00;47162.44;5010302;28;20040;-76
2022/05/16 06:31:04;;;;;;;15.27;6.60;;;;;;;-145.18;100.00;47156.56;5008891;28;20113;-76
2022/05/16 06:33:29;;;;;;;15.57;6.07;;;;;;;-145.18;100.00;47142.91;5010372;28;20026;-76
2022/05/16 06:35:55;;;;;;;13.67;6.17;;;;;;;-145.18;100.00;47152.66;5010817;28;20029;-76
2022/05/16 06:38:25;;;;;;;12.20;5.93;;;;;;;-145.18;100.00;47158.53;5010248;28;20152;-76
2022/05/16 06:40:51;;;;;;;16.23;6.17;;;;;;;-145.18;100.00;47146.81;5010361;28;20100;-76
2022/05/16 06:43:19;;;;;;;9.93;5.40;;;;;;;-145.18;100.00;47154.63;5010199;28;20054;-76
2022/05/16 06:45:44;;;;;;;9.17;5.07;;;;;;;-145.18;100.00;47158.53;4993200;28;20029;-76
2022/05/16 06:48:10;;;;;;;12.70;5.90;;;;;;;-145.18;100.00;47135.09;5010145;28;20095;-76
2022/05/16 06:50:37;;;;;;;14.27;6.00;;;;;;;-145.18;100.00;47127.28;5010731;28;20551;-76
2022/05/16 06:53:03;;;;;;;13.23;5.50;;;;;;;-145.18;100.00;47131.19;5009911;28;20025;-76
2022/05/16 06:55:29;;;;;;;15.10;6.53;;;;;;;-145.18;100.00;47121.41;5010144;28;20029;-75
2022/05/16 06:57:55;;;;;;;9.63;5.23;;;;;;;-145.18;100.00;47133.13;5009640;28;20552;-76
2022/05/16 07:00:20;;;;;;;14.40;5.70;;;;;;;-145.18;100.00;47117.50;5010665;28;20072;-75
2022/05/16 07:02:46;;;;;;;17.23;5.87;;;;;;;-145.18;100.00;47140.94;4992284;28;20046;-76
2022/05/16 07:05:13;;;;;;;12.40;5.53;;;;;;;-145.18;100.00;47152.66;5010092;28;20036;-74
2022/05/16 07:07:38;;;;;;;15.97;6.17;;;;;;;-145.18;100.00;47162.44;5009092;28;20149;-74
2022/05/16 07:10:05;;;;;;;10.37;5.83;;;;;;;-145.18;100.00;47125.31;5009806;28;20121;-74
2022/05/16 07:12:30;;;;;;;11.00;5.70;;;;;;;-145.18;100.00;47123.38;5010308;28;20092;-75
2022/05/16 07:14:56;;;;;;;13.60;5.40;;;;;;;-145.18;100.00;47140.94;5009960;28;20038;-74
2022/05/16 07:17:21;;;;;;;13.40;5.57;;;;;;;-145.18;100.00;47092.09;5010481;28;20045;-74
2022/05/16 07:19:47;;;;;;;14.77;5.57;;;;;;;-145.18;100.00;47068.66;5009325;28;20471;-74
2022/05/16 07:22:15;;;;;;;10.83;4.70;;;;;;;-145.18;100.00;47082.34;5010048;28;20088;-74
2022/05/16 07:24:44;;;;;;;16.17;5.27;;;;;;;-145.18;100.00;47082.34;5010036;28;20394;-76
2022/05/16 07:29:54;;;;;;;12.17;5.20;;;;;;;-145.18;100.00;47072.56;5009275;28;20037;-75
2022/05/16 07:32:20;;;;;;;12.07;4.90;;;;;;;-145.18;100.00;47064.75;5010134;28;20034;-75
2022/05/16 07:34:46;;;;;;;12.67;5.23;;;;;;;-145.18;100.00;47072.56;5009650;28;20523;-75
2022/05/16 07:37:11;;;;;;;12.33;4.80;;;;;;;-145.18;100.00;47062.81;4992228;28;20080;-74
2022/05/16 07:39:38;;;;;;;11.63;4.73;;;;;;;-145.18;100.00;47060.84;5009445;28;20026;-75
2022/05/16 07:42:07;;;;;;;13.90;5.63;;;;;;;-145.18;100.00;47062.81;5010101;28;20500;-75
2022/05/16 07:44:33;;;;;;;16.90;5.10;;;;;;;-145.18;100.00;47053.03;4992706;28;20037;-75
2022/05/16 07:46:59;;;;;;;13.03;5.27;;;;;;;-145.18;100.00;47062.81;5009908;28;20052;-75
2022/05/16 07:49:25;;;;;;;14.47;5.40;;;;;;;-145.18;100.00;47066.72;5009635;28;20038;-75
2022/05/16 07:51:50;;;;;;;14.53;5.33;;;;;;;-145.18;100.00;47062.81;5009390;28;20037;-75
2022/05/16 07:54:16;;;;;;;12.63;5.07;;;;;;;-145.18;100.00;47062.81;5009804;28;20076;-75
2022/05/16 07:56:41;;;;;;;17.17;5.30;;;;;;;-145.18;100.00;47082.34;5009938;28;20412;-74
2022/05/16 07:59:06;;;;;;;9.73;4.77;;;;;;;-145.18;100.00;47076.47;5008983;28;20038;-76
2022/05/16 08:01:32;;;;;;;13.27;4.93;;;;;;;-145.18;100.00;47113.59;5009705;28;20022;-74
2022/05/16 08:03:58;;;;;;;13.50;5.43;;;;;;;-145.18;100.00;47152.66;5009080;28;20046;-77
2022/05/16 08:06:27;;;;;;;15.97;5.73;;;;;;;-145.18;100.00;47144.84;5010190;28;20042;-76
2022/05/16 08:11:37;;;;;;;13.87;4.30;;;;;;;-145.18;100.00;47058.91;5010024;28;20103;-75
2022/05/16 08:14:03;;;;;;;12.73;4.27;;;;;;;-145.18;100.00;47047.19;5008881;28;20314;-75
2022/05/16 08:16:28;;;;;;;15.57;4.50;;;;;;;-145.18;100.00;47025.69;4992336;28;20044;-75
2022/05/16 08:18:53;;;;;;;9.23;3.80;;;;;;;-145.18;100.00;47039.34;5010572;28;20042;-75
2022/05/16 08:21:19;;;;;;;14.67;4.40;;;;;;;-145.18;100.00;46996.38;5013545;28;20151;-74
2022/05/16 08:23:44;;;;;;;12.63;4.87;;;;;;;-145.18;100.00;47006.16;5012736;28;20044;-74
2022/05/16 08:26:10;;;;;;;8.90;3.80;;;;;;;-145.18;100.00;47023.72;5013233;28;20117;-74
2022/05/16 08:28:36;;;;;;;8.83;3.70;;;;;;;-145.18;100.00;47017.88;5013037;28;20048;-74
2022/05/16 08:31:02;;;;;;;10.23;4.30;;;;;;;-145.18;100.00;47008.09;5012954;28;20102;-74
2022/05/16 08:33:27;;;;;;;14.67;4.67;;;;;;;-145.18;100.00;47002.25;5012744;28;20045;-74
2022/05/16 08:41:28;;;;;;;11.30;4.47;;;;;;;-145.18;100.00;46986.63;5013174;28;20044;-74
2022/05/16 08:44:27;;;;;;;6.73;4.50;;;;;;;-145.18;100.00;46990.53;5012658;28;20025;-74
2022/05/16 08:47:26;;;;;;;9.30;3.93;;;;;;;-145.18;100.00;46986.63;4994712;28;20045;-74
2022/05/16 08:49:57;;;;;;;11.00;4.23;;;;;;;-145.18;100.00;46969.03;5012005;28;20471;-74
2022/05/16 08:52:36;;;;;;;9.90;3.53;;;;;;;-145.18;100.00;46961.22;5012973;28;20021;-74
2022/05/16 08:55:28;;;;;;;9.20;3.63;;;;;;;-145.18;100.00;46957.31;5012468;28;20054;-74
2022/05/16 08:58:07;;;;;;;10.07;3.87;;;;;;;-145.18;100.00;46949.50;5012233;28;20030;-74
2022/05/16 09:00:41;;;;;;;11.83;3.37;;;;;;;-145.18;100.00;46957.31;5012271;28;20036;-74
2022/05/16 09:03:12;;;;;;;9.13;3.03;;;;;;;-145.18;100.00;46959.25;5011944;28;20054;-74
2022/05/16 09:06:05;;;;;;;7.00;2.43;;;;;;;-145.18;100.00;46941.69;5012469;28;20034;-74
2022/05/16 09:08:49;;;;;;;7.70;2.20;;;;;;;-145.18;100.00;46941.69;5011413;28;20628;-74
2022/05/16 09:11:58;;;;;;;6.30;2.37;;;;;;;-145.18;100.00;46945.59;5012211;28;20077;-74
2022/05/16 09:14:54;;;;;;;4.70;2.00;;;;;;;-145.18;100.00;46918.25;4940244;28;20099;-74
2022/05/16 09:17:25;;;;;;;6.10;1.75;;;;;;;-145.18;100.00;46914.34;5012162;28;20045;-74
2022/05/16 09:19:53;;;;;;;3.80;1.53;;;;;;;-145.18;100.00;46941.69;5011474;28;20497;-73
2022/05/16 09:22:28;;;;;;;5.40;2.40;;;;;;;-145.18;100.00;46918.25;5011800;28;20026;-74
2022/05/16 09:25:07;;;;;;;5.63;1.80;;;;;;;-145.18;100.00;46939.72;5011796;28;20030;-74
2022/05/16 09:30:23;;;;;;;7.33;2.53;;;;;;;-145.18;100.00;46918.25;5010699;28;20049;-73
2022/05/16 09:32:57;;;;;;;7.53;2.07;;;;;;;-145.18;100.00;46910.44;5011781;28;20615;-74
2022/05/16 09:35:43;;;;;;;9.23;2.50;;;;;;;-145.18;100.00;46918.25;5011559;28;20389;-73
2022/05/16 09:38:08;;;;;;;7.43;2.00;;;;;;;-145.18;100.00;46916.28;5011568;28;20038;-74
2022/05/16 09:40:37;;;;;;;6.82;2.38;;;;;;;-145.18;100.00;46918.25;5011441;28;20033;-73
2022/05/16 09:43:20;;;;;;;6.27;2.20;;;;;;;-145.18;100.00;46916.28;5011400;28;20038;-74
2022/05/16 09:46:08;;;;;;;6.53;2.47;;;;;;;-145.18;100.00;46933.88;5011913;28;20056;-74
2022/05/16 09:48:35;;;;;;;4.25;2.25;;;;;;;-145.18;100.00;46933.88;5003560;28;20414;-73
2022/05/16 09:51:07;;;;;;;11.07;3.20;;;;;;;-145.18;100.00;46920.19;4994128;28;20054;-74
2022/05/16 09:53:44;;;;;;;7.87;2.50;;;;;;;-145.18;100.00;46908.47;5010896;28;20025;-74
2022/05/16 09:56:28;;;;;;;4.83;2.40;;;;;;;-145.18;100.00;46918.25;5011198;28;20041;-74
2022/05/16 09:59:00;;;;;;;4.53;2.70;;;;;;;-145.18;100.00;46937.78;5010768;28;20092;-73
2022/05/16 10:01:45;;;;;;;6.30;2.53;;;;;;;-145.18;100.00;46939.72;5011273;28;20032;-74
2022/05/16 10:04:15;;;;;;;11.67;3.03;;;;;;;-145.18;100.00;46924.09;5010780;28;20510;-73
2022/05/16 10:06:44;;;;;;;11.47;3.60;;;;;;;-145.18;100.00;46965.13;5011338;28;20045;-73
2022/05/16 10:09:15;;;;;;;12.47;3.87;;;;;;;-145.18;100.00;46994.44;5010695;28;20061;-73
2022/05/16 10:11:47;;;;;;;13.23;3.43;;;;;;;-145.18;100.00;47025.69;5011377;28;20053;-73
2022/05/16 10:14:13;;;;;;;7.33;3.20;;;;;;;-145.18;100.00;47047.19;5010439;28;20041;-73
2022/05/16 10:16:44;;;;;;;12.90;3.03;;;;;;;-145.18;100.00;47058.91;4993895;28;20034;-76
2022/05/16 10:19:15;;;;;;;7.07;3.27;;;;;;;-145.18;100.00;47088.19;5010512;28;20048;-74
2022/05/16 10:22:01;;;;;;;7.80;2.70;;;;;;;-145.18;100.00;47119.47;5010826;28;20068;-75
2022/05/16 10:24:31;;;;;;;13.80;3.33;;;;;;;-145.18;100.00;47174.16;4995387;28;20060;-75
2022/05/16 10:27:04;;;;;;;11.47;2.70;;;;;;;-145.18;100.00;46906.53;5010831;28;20065;-74
2022/05/16 10:29:32;;;;;;;11.77;2.60;;;;;;;-145.18;100.00;46566.63;5010724;28;20034;-77
2022/05/16 10:34:57;;;;;;;9.47;3.47;;;;;;;-145.18;100.00;46543.19;5010510;28;20121;-78
2022/05/16 10:37:24;;;;;;;11.80;3.70;;;;;;;-145.18;100.00;46547.09;5010711;28;20029;-77
2022/05/16 10:39:53;;;;;;;9.83;4.37;;;;;;;-145.18;100.00;46541.25;5010336;28;20092;-77
2022/05/16 10:42:26;;;;;;;18.67;5.30;;;;;;;-145.18;100.00;46629.13;5010918;28;20445;-77
2022/05/16 10:45:09;;;;;;;8.03;4.83;;;;;;;-145.18;100.00;46656.50;5010026;28;20479;-76
2022/05/16 10:48:07;;;;;;;15.03;5.27;;;;;;;-145.18;100.00;46642.81;5010918;28;20022;-78
2022/05/16 10:50:55;;;;;;;13.97;6.13;;;;;;;-145.18;100.00;46635.00;5001194;28;20038;-77
2022/05/16 10:53:32;;;;;;;11.23;5.83;;;;;;;-145.18;100.00;46633.06;5010425;28;20028;-75
2022/05/16 10:56:35;;;;;;;16.73;6.77;;;;;;;-145.18;100.00;46635.00;5010499;28;20026;-78
2022/05/16 10:59:25;;;;;;;13.67;6.30;;;;;;;-145.18;100.00;46635.00;5010211;28;20033;-75
2022/05/16 11:01:53;;;;;;;13.77;5.90;;;;;;;-145.18;100.00;46633.06;5009988;28;20048;-75
2022/05/16 11:04:41;;;;;;;14.43;6.17;;;;;;;-145.18;100.00;46631.09;5008242;28;20057;-74
2022/05/16 11:07:35;;;;;;;11.33;6.00;;;;;;;-145.18;100.00;46636.94;5010170;28;20431;-76
2022/05/16 11:10:12;;;;;;;12.83;6.60;;;;;;;-145.18;100.00;46642.81;4990244;28;20034;-76
2022/05/16 11:12:46;;;;;;;11.50;7.03;;;;;;;-145.18;100.00;46640.88;4990603;28;20042;-76
2022/05/16 11:15:14;;;;;;;11.83;7.63;;;;;;;-145.18;100.00;46627.19;4990052;28;20030;-76
2022/05/16 11:18:10;;;;;;;18.97;8.63;;;;;;;-145.18;100.00;46566.63;4990606;28;20039;-76
2022/05/16 11:20:43;;;;;;;18.42;8.90;;;;;;;-145.18;100.00;46519.75;4972633;28;20140;-76
2022/05/16 11:23:33;;;;;;;14.90;9.40;;;;;;;-145.18;100.00;46535.38;4990453;28;20029;-76
2022/05/16 11:26:16;;;;;;;15.57;10.03;;;;;;;-145.18;100.00;46521.72;4990572;28;20451;-76
2022/05/16 11:31:58;;;;;;;18.97;10.33;;;;;;;-145.18;100.00;46508.03;4990880;28;20036;-76
2022/05/16 11:34:48;;;;;;;16.57;10.53;;;;;;;-145.18;100.00;46517.81;4990144;28;20502;-77
2022/05/16 11:37:44;;;;;;;16.50;11.17;;;;;;;-145.18;100.00;46519.75;4989866;28;20031;-74
2022/05/16 11:40:36;;;;;;;;;;;;;;;-145.18;100.00;46529.53;4990409;28;20037;-77
2022/05/16 11:43:21;;;;;;;16.13;8.20;;;;;;;-145.18;100.00;46537.34;4987025;28;19915;-77
2022/05/16 11:46:24;;;;;;;15.25;9.52;;;;;;;-145.18;100.00;46615.47;4989437;28;20037;-77
2022/05/16 11:48:52;;;;;;;18.17;9.77;;;;;;;-145.18;100.00;46623.28;4990057;28;20372;-77
2022/05/16 11:51:28;;;;;;;13.63;8.47;;;;;;;-145.18;100.00;46619.38;4990010;28;20031;-77